KMOX/MOX METAR and TAF weather

Enter ICAO airport designator
Station Type Date Time Source
KMOX METAR 2021/04/18 03:15 UTC NOAA

KMOX 180315Z AUTO 00000KT 10SM CLR 06/M04 A3002 RMK AO2


Station Type Date Time Source
KMOX Decoded METAR 2021/04/18 03:15 UTC NOAA

Morris, Morris Municipal Airport, MN, United States (KMOX) 45-34N 095-58W
Apr 17, 2021 - 11:15 PM EDT / 2021.04.18 0315 UTC
Wind: Calm:0
Visibility: 10 mile(s):0
Sky conditions: clear
Temperature: 42 F (6 C)
Dew Point: 24 F (-4 C)
Relative Humidity: 48%
Pressure (altimeter): 30.02 in. Hg (1016 hPa)
ob: KMOX 180315Z AUTO 00000KT 10SM CLR 06/M04 A3002 RMK AO2
cycle: 3

Station Type Date Time Source
KMOX TAF UTC NOAA

Error!

Example: see airport list